sensor_id;sensor_type;location;lat;lon;timestamp;pressure;altitude;pressure_sealevel;temperature;humidity
50226;BME280;36113;50.742;6.432;2023-12-28T00:00:10;98359.81;;;7.75;85.03
50226;BME280;36113;50.742;6.432;2023-12-28T00:02:35;98363.03;;;7.67;85.48
50226;BME280;36113;50.742;6.432;2023-12-28T00:05:00;98362.97;;;7.57;86.20
50226;BME280;36113;50.742;6.432;2023-12-28T00:07:26;98343.94;;;7.41;86.56
50226;BME280;36113;50.742;6.432;2023-12-28T00:09:51;98361.03;;;7.47;86.68
50226;BME280;36113;50.742;6.432;2023-12-28T00:12:16;98370.72;;;7.43;86.37
50226;BME280;36113;50.742;6.432;2023-12-28T00:14:42;98381.03;;;7.46;86.58
50226;BME280;36113;50.742;6.432;2023-12-28T00:17:07;98376.41;;;7.41;86.67
50226;BME280;36113;50.742;6.432;2023-12-28T00:19:32;98369.13;;;7.42;86.64
50226;BME280;36113;50.742;6.432;2023-12-28T00:21:57;98368.34;;;7.46;86.81
50226;BME280;36113;50.742;6.432;2023-12-28T00:24:23;98342.25;;;7.30;86.72
50226;BME280;36113;50.742;6.432;2023-12-28T00:26:48;98364.78;;;7.46;86.62
50226;BME280;36113;50.742;6.432;2023-12-28T00:29:14;98377.25;;;7.47;87.50
50226;BME280;36113;50.742;6.432;2023-12-28T00:31:39;98372.66;;;7.47;87.42
50226;BME280;36113;50.742;6.432;2023-12-28T00:34:04;98376.94;;;7.43;87.96
50226;BME280;36113;50.742;6.432;2023-12-28T00:36:30;98379.09;;;7.41;87.82
50226;BME280;36113;50.742;6.432;2023-12-28T00:38:55;98373.44;;;7.43;87.71
50226;BME280;36113;50.742;6.432;2023-12-28T00:41:20;98375.09;;;7.49;87.73
50226;BME280;36113;50.742;6.432;2023-12-28T00:43:45;98386.47;;;7.51;87.74
50226;BME280;36113;50.742;6.432;2023-12-28T00:46:11;98365.00;;;7.34;87.65
50226;BME280;36113;50.742;6.432;2023-12-28T00:48:36;98393.81;;;7.56;87.33
50226;BME280;36113;50.742;6.432;2023-12-28T00:51:01;98357.75;;;7.40;87.15
50226;BME280;36113;50.742;6.432;2023-12-28T00:53:27;98396.84;;;7.70;86.61
50226;BME280;36113;50.742;6.432;2023-12-28T00:55:52;98411.47;;;7.69;86.10
50226;BME280;36113;50.742;6.432;2023-12-28T00:58:17;98403.63;;;7.72;86.14
50226;BME280;36113;50.742;6.432;2023-12-28T01:00:43;98395.00;;;7.80;86.30
50226;BME280;36113;50.742;6.432;2023-12-28T01:03:08;98387.44;;;7.77;86.11
50226;BME280;36113;50.742;6.432;2023-12-28T01:05:33;98399.94;;;7.88;86.14
50226;BME280;36113;50.742;6.432;2023-12-28T01:07:59;98401.53;;;7.90;85.90
50226;BME280;36113;50.742;6.432;2023-12-28T01:10:24;98397.72;;;7.85;86.32
50226;BME280;36113;50.742;6.432;2023-12-28T01:12:49;98391.50;;;7.80;86.35
50226;BME280;36113;50.742;6.432;2023-12-28T01:15:15;98412.13;;;7.96;86.58
50226;BME280;36113;50.742;6.432;2023-12-28T01:17:42;98390.69;;;7.84;86.73
50226;BME280;36113;50.742;6.432;2023-12-28T01:20:08;98391.25;;;7.86;86.92
50226;BME280;36113;50.742;6.432;2023-12-28T01:22:33;98416.50;;;8.02;86.89
50226;BME280;36113;50.742;6.432;2023-12-28T01:24:59;98415.41;;;8.03;86.97
50226;BME280;36113;50.742;6.432;2023-12-28T01:27:24;98408.91;;;7.99;86.91
50226;BME280;36113;50.742;6.432;2023-12-28T01:29:49;98421.41;;;8.11;87.24
50226;BME280;36113;50.742;6.432;2023-12-28T01:32:15;98421.13;;;8.12;87.00
50226;BME280;36113;50.742;6.432;2023-12-28T01:34:40;98440.59;;;8.09;87.16
50226;BME280;36113;50.742;6.432;2023-12-28T01:37:07;98422.22;;;8.11;87.03
50226;BME280;36113;50.742;6.432;2023-12-28T01:39:33;98415.44;;;8.08;86.91
50226;BME280;36113;50.742;6.432;2023-12-28T01:41:58;98417.59;;;8.12;86.90
50226;BME280;36113;50.742;6.432;2023-12-28T01:44:23;98426.81;;;8.11;86.92
50226;BME280;36113;50.742;6.432;2023-12-28T01:46:49;98417.03;;;8.09;86.80
50226;BME280;36113;50.742;6.432;2023-12-28T01:49:15;98412.97;;;8.07;87.17
50226;BME280;36113;50.742;6.432;2023-12-28T01:51:41;98407.81;;;7.95;86.79
50226;BME280;36113;50.742;6.432;2023-12-28T01:54:07;98424.09;;;8.11;87.06
50226;BME280;36113;50.742;6.432;2023-12-28T01:56:33;98418.13;;;8.08;86.77
50226;BME280;36113;50.742;6.432;2023-12-28T01:58:59;98432.47;;;8.04;86.93
50226;BME280;36113;50.742;6.432;2023-12-28T02:01:25;98421.66;;;8.09;86.40
50226;BME280;36113;50.742;6.432;2023-12-28T02:03:51;98346.50;;;7.63;86.26
50226;BME280;36113;50.742;6.432;2023-12-28T02:06:17;98404.56;;;8.03;86.31
50226;BME280;36113;50.742;6.432;2023-12-28T02:08:44;98419.72;;;7.99;86.07
50226;BME280;36113;50.742;6.432;2023-12-28T02:11:09;98406.69;;;7.91;85.93
50226;BME280;36113;50.742;6.432;2023-12-28T02:13:36;98427.06;;;8.04;85.65
50226;BME280;36113;50.742;6.432;2023-12-28T02:17:06;98398.28;;;7.87;85.40
50226;BME280;36113;50.742;6.432;2023-12-28T02:19:03;98427.06;;;8.09;85.14
50226;BME280;36113;50.742;6.432;2023-12-28T02:21:35;98439.50;;;8.05;85.30
50226;BME280;36113;50.742;6.432;2023-12-28T02:24:00;98431.09;;;8.01;85.15
50226;BME280;36113;50.742;6.432;2023-12-28T02:26:26;98408.31;;;7.92;85.12
50226;BME280;36113;50.742;6.432;2023-12-28T02:28:51;98418.91;;;7.99;84.77
50226;BME280;36113;50.742;6.432;2023-12-28T02:31:21;98408.91;;;7.99;84.30
50226;BME280;36113;50.742;6.432;2023-12-28T02:33:57;98426.22;;;7.98;84.66
50226;BME280;36113;50.742;6.432;2023-12-28T02:36:26;98406.16;;;7.89;84.11
50226;BME280;36113;50.742;6.432;2023-12-28T02:38:53;98403.19;;;7.91;84.37
50226;BME280;36113;50.742;6.432;2023-12-28T02:41:21;98408.91;;;7.99;83.73
50226;BME280;36113;50.742;6.432;2023-12-28T02:43:48;98430.31;;;8.06;83.66
50226;BME280;36113;50.742;6.432;2023-12-28T02:46:13;98426.25;;;8.08;83.57
50226;BME280;36113;50.742;6.432;2023-12-28T02:48:38;98417.28;;;8.03;83.31
50226;BME280;36113;50.742;6.432;2023-12-28T02:51:04;98428.97;;;8.08;83.59
50226;BME280;36113;50.742;6.432;2023-12-28T02:53:29;98421.94;;;8.13;83.29
50226;BME280;36113;50.742;6.432;2023-12-28T02:55:54;98431.44;;;8.15;83.11
50226;BME280;36113;50.742;6.432;2023-12-28T02:58:20;98426.56;;;8.17;83.09
50226;BME280;36113;50.742;6.432;2023-12-28T03:00:45;98426.81;;;8.16;82.56
50226;BME280;36113;50.742;6.432;2023-12-28T03:03:10;98436.59;;;8.22;82.52
50226;BME280;36113;50.742;6.432;2023-12-28T03:05:35;98424.13;;;8.16;82.61
50226;BME280;36113;50.742;6.432;2023-12-28T03:08:01;98404.84;;;8.07;82.41
50226;BME280;36113;50.742;6.432;2023-12-28T03:10:26;98424.13;;;8.21;82.18
50226;BME280;36113;50.742;6.432;2023-12-28T03:12:51;98420.63;;;8.20;82.04
50226;BME280;36113;50.742;6.432;2023-12-28T03:15:17;98400.53;;;8.06;81.66
50226;BME280;36113;50.742;6.432;2023-12-28T03:17:42;98437.16;;;8.24;81.03
50226;BME280;36113;50.742;6.432;2023-12-28T03:20:08;98420.91;;;8.24;80.78
50226;BME280;36113;50.742;6.432;2023-12-28T03:22:34;98426.56;;;8.22;80.93
50226;BME280;36113;50.742;6.432;2023-12-28T03:25:00;98421.97;;;8.18;80.62
50226;BME280;36113;50.742;6.432;2023-12-28T03:27:25;98413.28;;;8.16;80.36
50226;BME280;36113;50.742;6.432;2023-12-28T03:29:50;98411.94;;;8.18;80.44
50226;BME280;36113;50.742;6.432;2023-12-28T03:32:16;98407.56;;;8.02;80.30
50226;BME280;36113;50.742;6.432;2023-12-28T03:34:41;98441.22;;;8.21;80.21
50226;BME280;36113;50.742;6.432;2023-12-28T03:37:06;98411.38;;;8.06;79.78
50226;BME280;36113;50.742;6.432;2023-12-28T03:39:32;98379.91;;;7.95;79.74
50226;BME280;36113;50.742;6.432;2023-12-28T03:41:58;98390.22;;;8.03;79.63
50226;BME280;36113;50.742;6.432;2023-12-28T03:44:23;98404.91;;;8.17;79.16
50226;BME280;36113;50.742;6.432;2023-12-28T03:46:49;98406.50;;;8.13;78.93
50226;BME280;36113;50.742;6.432;2023-12-28T03:49:21;98376.13;;;7.96;78.20
50226;BME280;36113;50.742;6.432;2023-12-28T03:51:48;98402.44;;;8.11;78.15
50226;BME280;36113;50.742;6.432;2023-12-28T03:54:16;98405.72;;;8.18;78.10
50226;BME280;36113;50.742;6.432;2023-12-28T03:56:41;98420.59;;;8.15;77.69
50226;BME280;36113;50.742;6.432;2023-12-28T03:59:08;98380.19;;;8.03;77.56
50226;BME280;36113;50.742;6.432;2023-12-28T04:01:33;98398.66;;;8.12;77.38
50226;BME280;36113;50.742;6.432;2023-12-28T04:03:59;98355.78;;;7.88;76.86
50226;BME280;36113;50.742;6.432;2023-12-28T04:06:24;98400.56;;;8.11;76.13
50226;BME280;36113;50.742;6.432;2023-12-28T04:08:49;98375.03;;;7.97;75.41
50226;BME280;36113;50.742;6.432;2023-12-28T04:11:15;98401.66;;;8.15;74.70
50226;BME280;36113;50.742;6.432;2023-12-28T04:13:40;98387.81;;;8.17;73.96
50226;BME280;36113;50.742;6.432;2023-12-28T04:16:06;98388.38;;;8.19;74.00
50226;BME280;36113;50.742;6.432;2023-12-28T04:18:31;98357.72;;;7.98;74.25
50226;BME280;36113;50.742;6.432;2023-12-28T04:20:57;98375.63;;;8.14;73.48
50226;BME280;36113;50.742;6.432;2023-12-28T04:23:22;98386.78;;;8.23;72.96
50226;BME280;36113;50.742;6.432;2023-12-28T04:25:47;98362.34;;;8.07;73.30
50226;BME280;36113;50.742;6.432;2023-12-28T04:28:12;98386.50;;;8.24;73.42
50226;BME280;36113;50.742;6.432;2023-12-28T04:30:38;98353.41;;;8.02;73.04
50226;BME280;36113;50.742;6.432;2023-12-28T04:33:03;98352.88;;;8.05;73.26
50226;BME280;36113;50.742;6.432;2023-12-28T04:35:29;98385.72;;;8.24;73.26
50226;BME280;36113;50.742;6.432;2023-12-28T04:37:54;98337.69;;;7.88;73.36
50226;BME280;36113;50.742;6.432;2023-12-28T04:40:20;98370.78;;;8.11;73.79
50226;BME280;36113;50.742;6.432;2023-12-28T04:42:46;98361.50;;;7.97;73.83
50226;BME280;36113;50.742;6.432;2023-12-28T04:45:11;98374.28;;;8.12;74.30
50226;BME280;36113;50.742;6.432;2023-12-28T04:47:36;98379.38;;;7.98;74.07
50226;BME280;36113;50.742;6.432;2023-12-28T04:50:05;98387.81;;;8.06;74.43
50226;BME280;36113;50.742;6.432;2023-12-28T04:52:31;98392.94;;;8.03;74.85
50226;BME280;36113;50.742;6.432;2023-12-28T04:54:56;98376.13;;;7.96;75.47
50226;BME280;36113;50.742;6.432;2023-12-28T04:57:22;98393.47;;;8.00;75.47
50226;BME280;36113;50.742;6.432;2023-12-28T04:59:49;98397.22;;;7.94;75.39
50226;BME280;36113;50.742;6.432;2023-12-28T05:02:15;98397.22;;;7.88;75.15
50226;BME280;36113;50.742;6.432;2023-12-28T05:04:40;98397.50;;;7.92;75.59
50226;BME280;36113;50.742;6.432;2023-12-28T05:07:05;98406.41;;;7.87;75.17
50226;BME280;36113;50.742;6.432;2023-12-28T05:09:31;98412.38;;;7.95;75.00
50226;BME280;36113;50.742;6.432;2023-12-28T05:11:56;98410.47;;;7.90;75.56
50226;BME280;36113;50.742;6.432;2023-12-28T05:14:22;98422.88;;;7.81;75.74
50226;BME280;36113;50.742;6.432;2023-12-28T05:16:47;98432.66;;;7.87;75.86
50226;BME280;36113;50.742;6.432;2023-12-28T05:19:12;98424.28;;;7.88;75.46
50226;BME280;36113;50.742;6.432;2023-12-28T05:21:38;98401.44;;;7.69;75.83
50226;BME280;36113;50.742;6.432;2023-12-28T05:24:03;98417.44;;;7.71;76.38
50226;BME280;36113;50.742;6.432;2023-12-28T05:26:29;98429.88;;;7.72;76.54
50226;BME280;36113;50.742;6.432;2023-12-28T05:28:55;98466.16;;;7.76;76.31
50226;BME280;36113;50.742;6.432;2023-12-28T05:31:20;98416.00;;;7.58;76.49
50226;BME280;36113;50.742;6.432;2023-12-28T05:33:45;98455.31;;;7.76;76.40
50226;BME280;36113;50.742;6.432;2023-12-28T05:36:11;98457.72;;;7.72;76.71
50226;BME280;36113;50.742;6.432;2023-12-28T05:38:36;98415.41;;;7.51;77.02
50226;BME280;36113;50.742;6.432;2023-12-28T05:41:02;98469.63;;;7.71;76.98
50226;BME280;36113;50.742;6.432;2023-12-28T05:43:27;98469.34;;;7.67;77.47
50226;BME280;36113;50.742;6.432;2023-12-28T05:45:52;98465.50;;;7.63;77.31
50226;BME280;36113;50.742;6.432;2023-12-28T05:48:18;98449.97;;;7.43;77.38
50226;BME280;36113;50.742;6.432;2023-12-28T05:50:43;98438.31;;;7.38;77.33
50226;BME280;36113;50.742;6.432;2023-12-28T05:53:08;98448.34;;;7.42;77.48
50226;BME280;36113;50.742;6.432;2023-12-28T05:55:40;98483.09;;;7.61;77.51
50226;BME280;36113;50.742;6.432;2023-12-28T05:58:05;98486.56;;;7.56;77.87
50226;BME280;36113;50.742;6.432;2023-12-28T06:00:30;98453.75;;;7.42;77.89
50226;BME280;36113;50.742;6.432;2023-12-28T06:02:56;98468.09;;;7.43;77.98
50226;BME280;36113;50.742;6.432;2023-12-28T06:05:21;98498.25;;;7.62;77.99
50226;BME280;36113;50.742;6.432;2023-12-28T06:07:46;98486.31;;;7.58;78.14
50226;BME280;36113;50.742;6.432;2023-12-28T06:10:11;98494.91;;;7.50;78.09
50226;BME280;36113;50.742;6.432;2023-12-28T06:12:37;98455.59;;;7.37;78.35
50226;BME280;36113;50.742;6.432;2023-12-28T06:15:02;98474.28;;;7.38;78.07
50226;BME280;36113;50.742;6.432;2023-12-28T06:17:28;98467.19;;;7.32;78.03
50226;BME280;36113;50.742;6.432;2023-12-28T06:19:53;98466.97;;;7.39;78.10
50226;BME280;36113;50.742;6.432;2023-12-28T06:22:19;98501.47;;;7.59;77.92
50226;BME280;36113;50.742;6.432;2023-12-28T06:24:44;98481.69;;;7.53;77.83
50226;BME280;36113;50.742;6.432;2023-12-28T06:27:11;98506.03;;;7.53;78.11
50226;BME280;36113;50.742;6.432;2023-12-28T06:29:36;98487.56;;;7.40;78.56
50226;BME280;36113;50.742;6.432;2023-12-28T06:32:01;98456.81;;;7.19;78.35
50226;BME280;36113;50.742;6.432;2023-12-28T06:34:26;98485.63;;;7.35;78.25
50226;BME280;36113;50.742;6.432;2023-12-28T06:36:52;98495.69;;;7.45;78.67
50226;BME280;36113;50.742;6.432;2023-12-28T06:39:17;98508.91;;;7.41;78.50
50226;BME280;36113;50.742;6.432;2023-12-28T06:41:46;98509.22;;;7.45;78.47
50226;BME280;36113;50.742;6.432;2023-12-28T06:44:12;98512.78;;;7.51;78.50
50226;BME280;36113;50.742;6.432;2023-12-28T06:46:39;98513.50;;;7.41;78.66
50226;BME280;36113;50.742;6.432;2023-12-28T06:49:04;98533.88;;;7.49;78.56
50226;BME280;36113;50.742;6.432;2023-12-28T06:51:31;98505.41;;;7.46;78.63
50226;BME280;36113;50.742;6.432;2023-12-28T06:53:56;98520.91;;;7.51;78.81
50226;BME280;36113;50.742;6.432;2023-12-28T06:56:22;98523.84;;;7.49;78.88
50226;BME280;36113;50.742;6.432;2023-12-28T06:58:47;98492.03;;;7.24;78.64
50226;BME280;36113;50.742;6.432;2023-12-28T07:01:12;98505.34;;;7.36;78.71
50226;BME280;36113;50.742;6.432;2023-12-28T07:03:38;98527.28;;;7.39;78.57
50226;BME280;36113;50.742;6.432;2023-12-28T07:06:03;98533.25;;;7.41;78.68
50226;BME280;36113;50.742;6.432;2023-12-28T07:08:28;98541.41;;;7.46;78.66
50226;BME280;36113;50.742;6.432;2023-12-28T07:10:54;98545.47;;;7.44;78.82
50226;BME280;36113;50.742;6.432;2023-12-28T07:13:19;98549.22;;;7.43;78.87
50226;BME280;36113;50.742;6.432;2023-12-28T07:15:44;98537.06;;;7.45;78.92
50226;BME280;36113;50.742;6.432;2023-12-28T07:18:09;98553.00;;;7.42;78.80
50226;BME280;36113;50.742;6.432;2023-12-28T07:20:35;98530.47;;;7.31;78.91
50226;BME280;36113;50.742;6.432;2023-12-28T07:23:00;98474.19;;;6.96;78.78
50226;BME280;36113;50.742;6.432;2023-12-28T07:25:25;98553.78;;;7.37;79.02
50226;BME280;36113;50.742;6.432;2023-12-28T07:27:51;98556.41;;;7.32;79.20
50226;BME280;36113;50.742;6.432;2023-12-28T07:30:16;98564.59;;;7.37;78.97
50226;BME280;36113;50.742;6.432;2023-12-28T07:32:42;98534.16;;;7.20;79.15
50226;BME280;36113;50.742;6.432;2023-12-28T07:35:08;98568.34;;;7.36;79.20
50226;BME280;36113;50.742;6.432;2023-12-28T07:37:34;98530.94;;;7.23;78.79
50226;BME280;36113;50.742;6.432;2023-12-28T07:40:00;98510.53;;;7.10;79.04
50226;BME280;36113;50.742;6.432;2023-12-28T07:42:26;98563.63;;;7.49;78.41
50226;BME280;36113;50.742;6.432;2023-12-28T07:44:51;98546.81;;;7.46;78.38
50226;BME280;36113;50.742;6.432;2023-12-28T07:47:16;98549.22;;;7.43;78.45
50226;BME280;36113;50.742;6.432;2023-12-28T07:49:42;98556.00;;;7.45;78.37
50226;BME280;36113;50.742;6.432;2023-12-28T07:52:07;98563.88;;;7.47;78.27
50226;BME280;36113;50.742;6.432;2023-12-28T07:54:32;98564.97;;;7.51;77.85
50226;BME280;36113;50.742;6.432;2023-12-28T07:56:59;98564.09;;;7.45;77.93
50226;BME280;36113;50.742;6.432;2023-12-28T07:59:24;98571.97;;;7.47;78.16
50226;BME280;36113;50.742;6.432;2023-12-28T08:01:49;98551.53;;;7.29;78.28
50226;BME280;36113;50.742;6.432;2023-12-28T08:04:15;98601.47;;;7.49;77.95
50226;BME280;36113;50.742;6.432;2023-12-28T08:06:40;98595.22;;;7.48;78.16
50226;BME280;36113;50.742;6.432;2023-12-28T08:09:05;98610.66;;;7.47;78.26
50226;BME280;36113;50.742;6.432;2023-12-28T08:11:31;98614.78;;;7.55;77.88
50226;BME280;36113;50.742;6.432;2023-12-28T08:13:56;98609.06;;;7.52;77.95
50226;BME280;36113;50.742;6.432;2023-12-28T08:16:21;98609.09;;;7.57;77.95
50226;BME280;36113;50.742;6.432;2023-12-28T08:18:47;98625.69;;;7.65;78.16
50226;BME280;36113;50.742;6.432;2023-12-28T08:21:12;98609.19;;;7.62;77.83
50226;BME280;36113;50.742;6.432;2023-12-28T08:23:37;98603.22;;;7.65;77.84
50226;BME280;36113;50.742;6.432;2023-12-28T08:26:03;98606.50;;;7.67;77.77
50226;BME280;36113;50.742;6.432;2023-12-28T08:28:30;98614.59;;;7.62;77.83
50226;BME280;36113;50.742;6.432;2023-12-28T08:30:56;98626.78;;;7.64;78.05
50226;BME280;36113;50.742;6.432;2023-12-28T08:33:21;98622.41;;;7.63;78.14
50226;BME280;36113;50.742;6.432;2023-12-28T08:35:47;98596.63;;;7.51;77.77
50226;BME280;36113;50.742;6.432;2023-12-28T08:38:12;98627.94;;;7.74;77.65
50226;BME280;36113;50.742;6.432;2023-12-28T08:40:37;98596.41;;;7.57;77.21
50226;BME280;36113;50.742;6.432;2023-12-28T08:43:03;98627.16;;;7.78;77.54
50226;BME280;36113;50.742;6.432;2023-12-28T08:45:28;98602.72;;;7.68;77.50
50226;BME280;36113;50.742;6.432;2023-12-28T08:47:54;98644.88;;;7.91;77.52
50226;BME280;36113;50.742;6.432;2023-12-28T08:50:19;98612.00;;;7.77;77.31
50226;BME280;36113;50.742;6.432;2023-12-28T08:52:44;98645.16;;;7.95;76.64
50226;BME280;36113;50.742;6.432;2023-12-28T08:55:10;98641.97;;;8.03;76.27
50226;BME280;36113;50.742;6.432;2023-12-28T08:57:35;98637.13;;;8.05;76.08
50226;BME280;36113;50.742;6.432;2023-12-28T09:00:00;98637.66;;;8.02;75.80
50226;BME280;36113;50.742;6.432;2023-12-28T09:02:28;98590.91;;;7.79;75.05
50226;BME280;36113;50.742;6.432;2023-12-28T09:04:54;98634.16;;;8.06;75.00
50226;BME280;36113;50.742;6.432;2023-12-28T09:07:19;98647.25;;;8.20;75.06
50226;BME280;36113;50.742;6.432;2023-12-28T09:09:45;98660.59;;;8.32;75.09
50226;BME280;36113;50.742;6.432;2023-12-28T09:12:11;98616.34;;;8.16;74.47
50226;BME280;36113;50.742;6.432;2023-12-28T09:14:36;98657.19;;;8.41;74.33
50226;BME280;36113;50.742;6.432;2023-12-28T09:17:02;98656.91;;;8.43;75.50
50226;BME280;36113;50.742;6.432;2023-12-28T09:19:27;98653.94;;;8.44;74.74
50226;BME280;36113;50.742;6.432;2023-12-28T09:21:52;98668.63;;;8.54;74.23
50226;BME280;36113;50.742;6.432;2023-12-28T09:24:18;98658.34;;;8.56;74.23
50226;BME280;36113;50.742;6.432;2023-12-28T09:26:44;98669.75;;;8.58;74.19
50226;BME280;36113;50.742;6.432;2023-12-28T09:29:09;98668.41;;;8.65;73.93
50226;BME280;36113;50.742;6.432;2023-12-28T09:31:34;98642.34;;;8.54;74.14
50226;BME280;36113;50.742;6.432;2023-12-28T09:34:00;98660.34;;;8.70;72.99
50226;BME280;36113;50.742;6.432;2023-12-28T09:36:25;98649.97;;;8.62;72.18
50226;BME280;36113;50.742;6.432;2023-12-28T09:38:50;98649.97;;;8.62;72.75
50226;BME280;36113;50.742;6.432;2023-12-28T09:41:17;98667.34;;;8.66;72.47
50226;BME280;36113;50.742;6.432;2023-12-28T09:44:10;98677.66;;;8.69;71.95
50226;BME280;36113;50.742;6.432;2023-12-28T09:46:36;98658.97;;;8.68;71.59
50226;BME280;36113;50.742;6.432;2023-12-28T09:49:02;98645.66;;;8.61;72.12
50226;BME280;36113;50.742;6.432;2023-12-28T09:51:29;98667.13;;;8.78;72.29
50226;BME280;36113;50.742;6.432;2023-12-28T09:53:55;98666.88;;;8.80;72.08
50226;BME280;36113;50.742;6.432;2023-12-28T09:56:21;98663.63;;;8.83;71.89
50226;BME280;36113;50.742;6.432;2023-12-28T09:58:48;98653.91;;;8.87;71.93
50226;BME280;36113;50.742;6.432;2023-12-28T10:01:17;98662.03;;;8.87;71.77
50226;BME280;36113;50.742;6.432;2023-12-28T10:03:42;98652.00;;;8.87;71.56
50226;BME280;36113;50.742;6.432;2023-12-28T10:06:07;98645.50;;;8.88;71.76
50226;BME280;36113;50.742;6.432;2023-12-28T10:08:33;98632.44;;;8.80;71.78
50226;BME280;36113;50.742;6.432;2023-12-28T10:10:58;98640.66;;;9.01;71.32
50226;BME280;36113;50.742;6.432;2023-12-28T10:13:25;98647.44;;;8.93;70.84
50226;BME280;36113;50.742;6.432;2023-12-28T10:15:50;98618.88;;;8.75;71.22
50226;BME280;36113;50.742;6.432;2023-12-28T10:18:19;98620.00;;;8.84;71.46
50226;BME280;36113;50.742;6.432;2023-12-28T10:20:51;98619.22;;;8.94;71.30
50226;BME280;36113;50.742;6.432;2023-12-28T10:23:18;98631.22;;;9.03;71.07
50226;BME280;36113;50.742;6.432;2023-12-28T10:25:43;98619.28;;;9.09;70.27
50226;BME280;36113;50.742;6.432;2023-12-28T10:28:10;98609.22;;;9.05;69.66
50226;BME280;36113;50.742;6.432;2023-12-28T10:30:38;98625.28;;;9.17;70.07
50226;BME280;36113;50.742;6.432;2023-12-28T10:33:06;98600.28;;;9.09;70.03
50226;BME280;36113;50.742;6.432;2023-12-28T10:35:32;98580.22;;;9.00;69.34
50226;BME280;36113;50.742;6.432;2023-12-28T10:38:00;98618.56;;;9.35;69.21
50226;BME280;36113;50.742;6.432;2023-12-28T10:40:26;98611.50;;;9.44;69.47
50226;BME280;36113;50.742;6.432;2023-12-28T10:42:54;98610.69;;;9.48;68.56
50226;BME280;36113;50.742;6.432;2023-12-28T10:45:25;98584.59;;;9.32;69.18
50226;BME280;36113;50.742;6.432;2023-12-28T10:48:06;98625.09;;;9.59;68.28
50226;BME280;36113;50.742;6.432;2023-12-28T10:50:48;98614.53;;;9.68;68.34
50226;BME280;36113;50.742;6.432;2023-12-28T10:53:37;98617.50;;;9.87;68.23
50226;BME280;36113;50.742;6.432;2023-12-28T10:58:48;98594.16;;;9.81;67.21
50226;BME280;36113;50.742;6.432;2023-12-28T11:01:19;98567.28;;;9.74;67.52
50226;BME280;36113;50.742;6.432;2023-12-28T11:03:47;98598.25;;;9.88;66.55
50226;BME280;36113;50.742;6.432;2023-12-28T11:06:17;98584.94;;;9.92;66.22
50226;BME280;36113;50.742;6.432;2023-12-28T11:08:44;98604.22;;;10.01;65.82
50226;BME280;36113;50.742;6.432;2023-12-28T11:11:14;98586.84;;;9.86;66.35
50226;BME280;36113;50.742;6.432;2023-12-28T11:13:40;98606.38;;;9.99;65.68
50226;BME280;36113;50.742;6.432;2023-12-28T11:16:07;98597.69;;;9.97;65.63
50226;BME280;36113;50.742;6.432;2023-12-28T11:18:32;98593.91;;;9.92;66.17
50226;BME280;36113;50.742;6.432;2023-12-28T11:20:58;98600.41;;;9.91;65.65
50226;BME280;36113;50.742;6.432;2023-12-28T11:23:24;98575.44;;;9.84;66.13
50226;BME280;36113;50.742;6.432;2023-12-28T11:25:50;98584.91;;;10.02;66.51
50226;BME280;36113;50.742;6.432;2023-12-28T11:28:15;98555.88;;;9.92;65.74
50226;BME280;36113;50.742;6.432;2023-12-28T11:30:43;98578.13;;;10.15;65.14
50226;BME280;36113;50.742;6.432;2023-12-28T11:33:12;98589.25;;;10.13;65.05
50226;BME280;36113;50.742;6.432;2023-12-28T11:35:40;98561.28;;;10.08;65.64
50226;BME280;36113;50.742;6.432;2023-12-28T11:38:09;98587.88;;;10.21;64.77
50226;BME280;36113;50.742;6.432;2023-12-28T11:40:42;98583.53;;;10.15;64.97
50226;BME280;36113;50.742;6.432;2023-12-28T11:43:19;98579.47;;;10.18;64.86
50226;BME280;36113;50.742;6.432;2023-12-28T11:45:54;98581.91;;;10.19;64.72
50226;BME280;36113;50.742;6.432;2023-12-28T11:48:24;98580.53;;;10.22;65.05
50226;BME280;36113;50.742;6.432;2023-12-28T11:50:51;98566.94;;;10.27;64.90
50226;BME280;36113;50.742;6.432;2023-12-28T11:53:17;98589.78;;;10.26;64.09
50226;BME280;36113;50.742;6.432;2023-12-28T11:55:43;98570.78;;;10.21;64.58
50226;BME280;36113;50.742;6.432;2023-12-28T11:58:08;98582.97;;;10.33;64.15
50226;BME280;36113;50.742;6.432;2023-12-28T12:00:34;98575.38;;;10.35;64.68
50226;BME280;36113;50.742;6.432;2023-12-28T12:02:59;98560.72;;;10.11;63.88
50226;BME280;36113;50.742;6.432;2023-12-28T12:05:24;98557.50;;;10.04;64.41
50226;BME280;36113;50.742;6.432;2023-12-28T12:07:50;98577.81;;;10.27;64.85
50226;BME280;36113;50.742;6.432;2023-12-28T12:10:15;98573.22;;;10.27;64.59
50226;BME280;36113;50.742;6.432;2023-12-28T12:12:41;98579.75;;;10.21;63.80
50226;BME280;36113;50.742;6.432;2023-12-28T12:15:08;98546.91;;;9.97;64.24
50226;BME280;36113;50.742;6.432;2023-12-28T12:17:33;98546.94;;;9.92;64.78
50226;BME280;36113;50.742;6.432;2023-12-28T12:19:59;98565.91;;;10.02;64.06
50226;BME280;36113;50.742;6.432;2023-12-28T12:22:25;98539.84;;;10.01;63.97
50226;BME280;36113;50.742;6.432;2023-12-28T12:24:51;98541.22;;;9.99;63.80
50226;BME280;36113;50.742;6.432;2023-12-28T12:27:17;98509.19;;;9.85;64.29
50226;BME280;36113;50.742;6.432;2023-12-28T12:29:42;98569.13;;;10.20;64.09
50226;BME280;36113;50.742;6.432;2023-12-28T12:32:08;98555.59;;;9.99;64.39
50226;BME280;36113;50.742;6.432;2023-12-28T12:34:34;98570.50;;;10.17;64.80
50226;BME280;36113;50.742;6.432;2023-12-28T12:37:00;98573.47;;;10.26;64.10
50226;BME280;36113;50.742;6.432;2023-12-28T12:39:25;98547.69;;;10.13;63.86
50226;BME280;36113;50.742;6.432;2023-12-28T12:41:51;98544.72;;;10.14;64.13
50226;BME280;36113;50.742;6.432;2023-12-28T12:44:19;98542.53;;;10.11;63.44
50226;BME280;36113;50.742;6.432;2023-12-28T12:46:44;98559.63;;;10.17;63.38
50226;BME280;36113;50.742;6.432;2023-12-28T12:49:10;98549.34;;;10.14;63.62
50226;BME280;36113;50.742;6.432;2023-12-28T12:51:35;98530.06;;;10.10;63.42
50226;BME280;36113;50.742;6.432;2023-12-28T12:54:02;98550.66;;;10.22;63.31
50226;BME280;36113;50.742;6.432;2023-12-28T12:56:31;98554.22;;;10.17;63.18
50226;BME280;36113;50.742;6.432;2023-12-28T12:58:57;98549.84;;;10.21;63.95
50226;BME280;36113;50.742;6.432;2023-12-28T13:01:23;98546.56;;;10.24;63.78
50226;BME280;36113;50.742;6.432;2023-12-28T13:03:49;98556.91;;;10.22;63.56
50226;BME280;36113;50.742;6.432;2023-12-28T13:06:15;98556.09;;;10.22;63.52